createdAt,value
2018-02-09T00:00:09.615Z,36.61
2018-02-09T00:02:35.421Z,36.44
2018-02-09T00:05:01.234Z,36.40
2018-02-09T00:07:27.090Z,36.38
2018-02-09T00:09:52.901Z,36.21
2018-02-09T00:12:18.722Z,36.34
2018-02-09T00:14:44.534Z,36.26
2018-02-09T00:17:11.234Z,36.36
2018-02-09T00:19:37.051Z,36.35
2018-02-09T00:22:02.908Z,36.58
2018-02-09T00:24:28.758Z,36.71
2018-02-09T00:26:54.623Z,36.62
2018-02-09T00:29:20.434Z,36.80
2018-02-09T00:31:46.246Z,36.91
2018-02-09T00:34:12.063Z,36.73
2018-02-09T00:36:37.880Z,36.41
2018-02-09T00:39:03.730Z,36.56
2018-02-09T00:41:29.542Z,36.60
2018-02-09T00:43:55.359Z,36.81
2018-02-09T00:46:21.182Z,36.65
2018-02-09T00:48:46.995Z,37.19
2018-02-09T00:51:12.815Z,36.91
2018-02-09T00:53:38.698Z,36.75
2018-02-09T00:56:04.646Z,36.88
2018-02-09T00:58:30.461Z,36.90
2018-02-09T01:00:56.431Z,37.14
2018-02-09T01:03:22.239Z,37.07
2018-02-09T01:05:48.055Z,36.94
2018-02-09T01:08:13.871Z,36.92
2018-02-09T01:10:39.685Z,37.08
2018-02-09T01:13:05.540Z,37.00
2018-02-09T01:15:31.356Z,36.80
2018-02-09T01:17:57.169Z,36.76
2018-02-09T01:20:22.987Z,36.66
2018-02-09T01:22:48.801Z,37.13
2018-02-09T01:25:14.622Z,37.48
2018-02-09T01:27:40.441Z,37.01
2018-02-09T01:30:06.255Z,36.95
2018-02-09T01:32:32.066Z,36.89
2018-02-09T01:34:57.883Z,36.75
2018-02-09T01:37:23.694Z,36.92
2018-02-09T01:39:49.551Z,36.61
2018-02-09T01:42:15.362Z,36.85
2018-02-09T01:44:41.175Z,36.58
2018-02-09T01:47:06.986Z,36.46
2018-02-09T01:49:32.814Z,36.48
2018-02-09T01:51:58.634Z,36.76
2018-02-09T01:54:24.450Z,36.64
2018-02-09T01:56:50.458Z,36.31
2018-02-09T01:59:16.270Z,36.38
2018-02-09T02:01:42.202Z,36.54
2018-02-09T02:04:08.011Z,36.78
2018-02-09T02:06:33.826Z,36.67
2018-02-09T02:08:59.695Z,36.62
2018-02-09T02:11:25.557Z,36.77
2018-02-09T02:13:51.370Z,36.65
2018-02-09T02:16:17.186Z,37.05
2018-02-09T02:18:43.002Z,37.09
2018-02-09T02:21:08.818Z,36.96
2018-02-09T02:23:34.682Z,36.81
2018-02-09T02:26:00.507Z,36.97
2018-02-09T02:28:26.327Z,36.87
2018-02-09T02:30:52.135Z,37.17
2018-02-09T02:33:18.002Z,37.16
2018-02-09T02:35:43.806Z,37.60
2018-02-09T02:38:09.631Z,36.81
2018-02-09T02:40:35.447Z,37.00
2018-02-09T02:43:01.267Z,37.03
2018-02-09T02:45:27.125Z,36.79
2018-02-09T02:47:52.940Z,36.84
2018-02-09T02:50:18.791Z,36.78
2018-02-09T02:52:44.600Z,37.08
2018-02-09T02:55:10.451Z,36.92
2018-02-09T02:57:36.306Z,36.77
2018-02-09T03:00:02.118Z,36.54
2018-02-09T03:02:27.957Z,36.50
2018-02-09T03:04:53.778Z,36.92
2018-02-09T03:07:19.591Z,36.68
2018-02-09T03:09:45.398Z,36.64
2018-02-09T03:12:11.207Z,36.53
2018-02-09T03:14:37.062Z,36.59
2018-02-09T03:17:02.883Z,36.18
2018-02-09T03:19:28.734Z,36.42
2018-02-09T03:21:54.576Z,36.69
2018-02-09T03:24:20.386Z,36.71
2018-02-09T03:26:46.202Z,36.40
2018-02-09T03:29:12.010Z,36.45
2018-02-09T03:31:37.867Z,36.42
2018-02-09T03:34:03.684Z,36.59
2018-02-09T03:36:29.506Z,36.39
2018-02-09T03:38:55.362Z,36.42
2018-02-09T03:41:21.970Z,36.37
2018-02-09T03:43:47.786Z,36.29
2018-02-09T03:46:13.603Z,36.74
2018-02-09T03:48:39.454Z,36.76
2018-02-09T03:51:05.410Z,36.59
2018-02-09T03:53:31.250Z,36.46
2018-02-09T03:55:57.069Z,36.60
2018-02-09T03:58:22.884Z,36.35
2018-02-09T04:00:48.760Z,36.45
2018-02-09T04:03:14.577Z,36.54
2018-02-09T04:05:40.394Z,36.48
2018-02-09T04:08:06.203Z,36.42
2018-02-09T04:10:32.063Z,36.22
2018-02-09T04:12:57.880Z,36.35
2018-02-09T04:15:23.697Z,36.52
2018-02-09T04:17:49.516Z,36.50
2018-02-09T04:20:15.330Z,36.31
2018-02-09T04:22:41.142Z,36.27
2018-02-09T04:25:06.946Z,36.60
2018-02-09T04:27:32.773Z,36.40
2018-02-09T04:29:58.594Z,36.50
2018-02-09T04:32:24.410Z,36.54
2018-02-09T04:34:50.226Z,37.24
2018-02-09T04:37:16.038Z,36.54
2018-02-09T04:39:41.854Z,36.65
2018-02-09T04:42:07.671Z,36.30
2018-02-09T04:44:33.488Z,36.66
2018-02-09T04:46:59.355Z,36.45
2018-02-09T04:49:26.326Z,36.68
2018-02-09T04:51:52.136Z,36.52
2018-02-09T04:54:17.948Z,36.45
2018-02-09T04:56:43.765Z,36.66
2018-02-09T04:59:09.582Z,36.58
2018-02-09T05:01:35.437Z,36.51
2018-02-09T05:04:01.244Z,36.26
2018-02-09T05:06:27.054Z,36.56
2018-02-09T05:08:52.862Z,36.41
2018-02-09T05:11:18.715Z,36.42
2018-02-09T05:13:44.529Z,36.71
2018-02-09T05:16:10.349Z,36.78
2018-02-09T05:18:36.161Z,36.78
2018-02-09T05:21:01.975Z,36.47
2018-02-09T05:23:27.781Z,36.61
2018-02-09T05:25:53.596Z,36.57
2018-02-09T05:28:19.410Z,36.83
2018-02-09T05:30:45.262Z,36.67
2018-02-09T05:33:11.073Z,36.68
2018-02-09T05:35:36.918Z,36.65
2018-02-09T05:38:02.743Z,36.70
2018-02-09T05:40:28.554Z,37.21
2018-02-09T05:42:54.464Z,37.15
2018-02-09T05:45:20.397Z,37.07
2018-02-09T05:47:46.214Z,37.17
2018-02-09T05:50:12.022Z,37.02
2018-02-09T05:52:37.842Z,37.09
2018-02-09T05:55:03.667Z,36.81
2018-02-09T05:57:29.481Z,36.55
2018-02-09T05:59:55.293Z,36.69
2018-02-09T06:02:21.106Z,37.03
2018-02-09T06:04:46.917Z,36.52
2018-02-09T06:07:12.762Z,36.66
2018-02-09T06:09:38.574Z,37.35
2018-02-09T06:12:04.437Z,37.03
2018-02-09T06:14:30.249Z,36.93
2018-02-09T06:16:56.059Z,36.98
2018-02-09T06:19:21.884Z,37.07
2018-02-09T06:21:47.697Z,37.48
2018-02-09T06:24:13.509Z,37.41
2018-02-09T06:26:39.330Z,37.26
2018-02-09T06:29:05.148Z,36.69
2018-02-09T06:31:31.949Z,36.96
2018-02-09T06:33:58.691Z,37.41
2018-02-09T06:36:24.527Z,37.13
2018-02-09T06:38:50.335Z,37.10
2018-02-09T06:41:16.183Z,36.94
2018-02-09T06:43:42.526Z,37.25
2018-02-09T06:46:08.390Z,37.18
2018-02-09T06:48:34.294Z,37.25
2018-02-09T06:51:00.162Z,36.94
2018-02-09T06:53:26.018Z,37.04
2018-02-09T06:55:51.836Z,36.96
2018-02-09T06:58:17.650Z,37.20
2018-02-09T07:00:43.562Z,36.82
2018-02-09T07:03:09.378Z,36.85
2018-02-09T07:05:35.182Z,37.07
2018-02-09T07:08:01.003Z,36.92
2018-02-09T07:10:26.862Z,36.79
2018-02-09T07:12:52.666Z,37.01
2018-02-09T07:15:18.507Z,37.34
2018-02-09T07:17:44.334Z,37.06
2018-02-09T07:20:16.231Z,37.08
2018-02-09T07:22:42.093Z,37.07
2018-02-09T07:25:07.944Z,36.78
2018-02-09T07:27:33.754Z,36.62
2018-02-09T07:29:59.570Z,36.89
2018-02-09T07:32:25.402Z,36.74
2018-02-09T07:34:51.222Z,37.24
2018-02-09T07:37:17.069Z,37.12
2018-02-09T07:39:42.874Z,36.95
2018-02-09T07:42:08.690Z,36.93
2018-02-09T07:44:34.506Z,36.81
2018-02-09T07:47:00.363Z,37.08
2018-02-09T07:49:26.182Z,37.23
2018-02-09T07:51:51.999Z,37.25
2018-02-09T07:54:17.847Z,37.19
2018-02-09T07:56:43.658Z,37.23
2018-02-09T07:59:09.605Z,37.10
2018-02-09T08:01:35.419Z,37.14
2018-02-09T08:04:01.235Z,37.20
2018-02-09T08:06:27.045Z,37.38
2018-02-09T08:08:52.855Z,37.24
2018-02-09T08:11:18.664Z,37.64
2018-02-09T08:13:44.610Z,37.47
2018-02-09T08:16:10.418Z,37.35
2018-02-09T08:18:36.225Z,37.27
2018-02-09T08:21:02.041Z,37.08
2018-02-09T08:23:27.854Z,37.11
2018-02-09T08:25:53.670Z,37.31
2018-02-09T08:28:19.504Z,37.24
2018-02-09T08:30:45.349Z,37.04
2018-02-09T08:33:11.155Z,37.06
2018-02-09T08:35:37.123Z,36.87
2018-02-09T08:38:02.979Z,37.28
2018-02-09T08:40:28.807Z,36.93
2018-02-09T08:42:54.666Z,36.89
2018-02-09T08:45:20.685Z,37.02
2018-02-09T08:47:46.507Z,37.09
2018-02-09T08:50:12.450Z,36.99
2018-02-09T08:52:38.348Z,36.83
2018-02-09T08:55:04.170Z,36.98
2018-02-09T08:57:29.990Z,37.37
2018-02-09T08:59:55.803Z,37.39
2018-02-09T09:02:21.614Z,37.21
2018-02-09T09:04:47.474Z,37.49
2018-02-09T09:07:13.320Z,37.38
2018-02-09T09:09:39.143Z,37.36
2018-02-09T09:12:05.162Z,37.66
2018-02-09T09:14:30.969Z,37.33
2018-02-09T09:16:56.782Z,37.56
2018-02-09T09:19:22.626Z,37.46
2018-02-09T09:21:48.444Z,37.49
2018-02-09T09:24:14.317Z,37.70
2018-02-09T09:26:40.326Z,37.55
2018-02-09T09:29:06.190Z,37.61
2018-02-09T09:31:32.006Z,37.71
2018-02-09T09:33:57.823Z,37.71
2018-02-09T09:36:23.853Z,38.04
2018-02-09T09:38:49.674Z,37.49
2018-02-09T09:41:15.558Z,37.76
2018-02-09T09:43:41.474Z,37.60
2018-02-09T09:46:07.290Z,37.83
2018-02-09T09:48:33.141Z,37.83
2018-02-09T09:50:58.946Z,37.61
2018-02-09T09:53:24.770Z,37.50
2018-02-09T09:55:50.674Z,37.24
2018-02-09T09:58:16.482Z,37.00
2018-02-09T10:00:42.295Z,36.59
2018-02-09T10:03:08.112Z,36.48
2018-02-09T10:05:33.929Z,36.74
2018-02-09T10:07:59.865Z,36.70
2018-02-09T10:10:25.795Z,36.78
2018-02-09T10:12:51.606Z,36.69
2018-02-09T10:15:17.417Z,36.93
2018-02-09T10:17:43.266Z,36.60
2018-02-09T10:20:09.082Z,36.77
2018-02-09T10:22:34.965Z,36.84
2018-02-09T10:25:00.819Z,36.79
2018-02-09T10:27:26.738Z,36.74
2018-02-09T10:29:52.558Z,36.90
2018-02-09T10:32:18.374Z,37.14
2018-02-09T10:34:44.183Z,37.03
2018-02-09T10:37:10.003Z,36.83
2018-02-09T10:39:35.950Z,37.02
2018-02-09T10:42:01.761Z,36.62
2018-02-09T10:44:27.586Z,36.37
2018-02-09T10:46:53.402Z,36.92
2018-02-09T10:49:19.218Z,36.70
2018-02-09T10:51:45.061Z,36.42
2018-02-09T10:54:10.879Z,36.40
2018-02-09T10:56:36.731Z,36.05
2018-02-09T10:59:02.584Z,36.48
2018-02-09T11:01:34.539Z,36.54
2018-02-09T11:04:00.355Z,36.58
2018-02-09T11:06:26.168Z,36.65
2018-02-09T11:08:51.989Z,36.37
2018-02-09T11:11:17.976Z,36.81
2018-02-09T11:13:43.809Z,36.94
2018-02-09T11:16:09.628Z,37.01
2018-02-09T11:18:35.490Z,36.98
2018-02-09T11:21:01.314Z,36.64
2018-02-09T11:23:27.144Z,36.76
2018-02-09T11:25:53.009Z,37.12
2018-02-09T11:28:18.885Z,37.14
2018-02-09T11:30:44.754Z,37.10
2018-02-09T11:33:10.571Z,36.81
2018-02-09T11:35:36.564Z,36.86
2018-02-09T11:38:02.418Z,37.35
2018-02-09T11:40:28.230Z,36.99
2018-02-09T11:42:54.055Z,37.08
2018-02-09T11:45:19.877Z,37.12
2018-02-09T11:47:45.685Z,37.82
2018-02-09T11:50:11.502Z,37.04
2018-02-09T11:52:37.378Z,36.65
2018-02-09T11:55:03.188Z,36.45
2018-02-09T11:57:29.046Z,37.30
2018-02-09T11:59:54.901Z,36.87
2018-02-09T12:02:20.784Z,36.88
2018-02-09T12:04:46.635Z,37.03
2018-02-09T12:07:12.452Z,36.51
2018-02-09T12:09:38.262Z,36.24
2018-02-09T12:12:04.147Z,36.58
2018-02-09T12:14:29.957Z,36.76
2018-02-09T12:16:55.810Z,36.57
2018-02-09T12:19:21.822Z,36.90
2018-02-09T12:21:47.693Z,36.75
2018-02-09T12:24:13.555Z,36.63
2018-02-09T12:26:39.417Z,36.46
2018-02-09T12:29:05.229Z,36.81
2018-02-09T12:31:31.129Z,36.64
2018-02-09T12:33:56.940Z,36.57
2018-02-09T12:36:22.747Z,36.73
2018-02-09T12:38:48.596Z,37.03
2018-02-09T12:41:14.414Z,36.67
2018-02-09T12:43:40.264Z,36.69
2018-02-09T12:46:06.120Z,36.24
2018-02-09T12:48:31.961Z,36.10
2018-02-09T12:50:57.810Z,35.99
2018-02-09T12:53:23.627Z,35.92
2018-02-09T12:55:49.482Z,35.64
2018-02-09T12:58:15.330Z,35.96
2018-02-09T13:00:41.174Z,35.78
2018-02-09T13:03:06.973Z,36.00
2018-02-09T13:05:32.901Z,35.98
2018-02-09T13:07:58.850Z,36.20
2018-02-09T13:10:24.690Z,35.85
2018-02-09T13:12:56.747Z,35.87
2018-02-09T13:15:22.568Z,35.79
2018-02-09T13:17:48.601Z,36.09
2018-02-09T13:20:14.463Z,35.76
2018-02-09T13:22:46.305Z,36.23
2018-02-09T13:25:12.306Z,36.21
2018-02-09T13:27:38.118Z,36.26
2018-02-09T13:30:03.934Z,36.51
2018-02-09T13:32:36.057Z,36.40
2018-02-09T13:35:01.906Z,36.30
2018-02-09T13:37:32.753Z,36.44
2018-02-09T13:39:58.565Z,36.40
2018-02-09T13:42:24.581Z,36.27
2018-02-09T13:44:50.394Z,36.48
2018-02-09T13:47:16.204Z,36.68
2018-02-09T13:49:42.015Z,36.58
2018-02-09T13:52:07.817Z,36.54
2018-02-09T13:54:33.807Z,36.44
2018-02-09T13:56:59.625Z,36.73
2018-02-09T13:59:25.486Z,36.89
2018-02-09T14:01:51.295Z,36.50
2018-02-09T14:04:17.106Z,36.51
2018-02-09T14:06:42.913Z,36.54
2018-02-09T14:09:08.732Z,36.80
2018-02-09T14:11:34.538Z,36.94
2018-02-09T14:14:00.365Z,36.44
2018-02-09T14:16:26.226Z,36.60
2018-02-09T14:18:52.038Z,36.97
2018-02-09T14:21:17.850Z,36.60
2018-02-09T14:23:43.677Z,36.65
2018-02-09T14:26:09.498Z,36.26
2018-02-09T14:28:35.361Z,37.02
2018-02-09T14:31:01.217Z,36.67
2018-02-09T14:33:27.031Z,36.83
2018-02-09T14:35:52.854Z,36.10
2018-02-09T14:38:18.683Z,36.45
2018-02-09T14:40:44.494Z,36.04
2018-02-09T14:43:10.331Z,36.38
2018-02-09T14:45:36.366Z,36.65
2018-02-09T14:48:02.169Z,36.82
2018-02-09T14:50:27.990Z,37.52
2018-02-09T14:52:53.798Z,36.86
2018-02-09T14:55:19.610Z,36.97
2018-02-09T14:57:45.414Z,37.16
2018-02-09T15:00:11.242Z,37.35
2018-02-09T15:02:37.051Z,36.92
2018-02-09T15:05:02.905Z,37.29
2018-02-09T15:07:28.734Z,36.93
2018-02-09T15:09:54.578Z,36.46
2018-02-09T15:12:20.435Z,37.03
2018-02-09T15:14:46.289Z,36.95
2018-02-09T15:17:12.142Z,37.01
2018-02-09T15:19:37.990Z,37.37
2018-02-09T15:22:03.838Z,36.95
2018-02-09T15:24:29.658Z,37.26
2018-02-09T15:26:55.507Z,37.33
2018-02-09T15:29:21.361Z,37.15
2018-02-09T15:31:47.219Z,37.61
2018-02-09T15:34:13.033Z,37.40
2018-02-09T15:36:38.902Z,37.64
2018-02-09T15:39:04.711Z,37.85
2018-02-09T15:41:31.402Z,37.50
2018-02-09T15:43:57.214Z,37.50
2018-02-09T15:46:23.169Z,37.82
2018-02-09T15:48:49.831Z,37.68
2018-02-09T15:51:15.781Z,38.23
2018-02-09T15:53:42.405Z,38.12
2018-02-09T15:56:08.227Z,38.25
2018-02-09T15:58:34.044Z,37.99
2018-02-09T16:00:59.896Z,37.94
2018-02-09T16:03:25.715Z,37.85
2018-02-09T16:05:51.532Z,38.35
2018-02-09T16:08:17.387Z,38.31
2018-02-09T16:10:50.174Z,38.49
2018-02-09T16:13:16.030Z,38.00
2018-02-09T16:15:41.844Z,38.04
2018-02-09T16:18:07.661Z,38.06
2018-02-09T16:20:33.486Z,38.23
2018-02-09T16:22:59.341Z,38.34
2018-02-09T16:25:25.159Z,38.52
2018-02-09T16:27:51.050Z,38.06
2018-02-09T16:30:16.871Z,37.68
2018-02-09T16:32:42.727Z,37.82
2018-02-09T16:35:08.542Z,37.80
2018-02-09T16:37:34.382Z,37.93
2018-02-09T16:40:00.207Z,37.67
2018-02-09T16:42:26.024Z,37.90
2018-02-09T16:44:51.850Z,38.08
2018-02-09T16:47:17.679Z,38.04
2018-02-09T16:49:43.529Z,38.22
2018-02-09T16:52:09.511Z,38.00
2018-02-09T16:54:35.329Z,38.07
2018-02-09T16:57:01.314Z,38.18
2018-02-09T16:59:27.130Z,38.50
2018-02-09T17:01:52.944Z,38.09
2018-02-09T17:04:18.759Z,37.82
2018-02-09T17:06:44.571Z,38.03
2018-02-09T17:09:10.418Z,37.99
2018-02-09T17:11:36.247Z,37.93
2018-02-09T17:14:02.056Z,38.27
2018-02-09T17:16:27.870Z,38.54
2018-02-09T17:18:53.807Z,38.03
2018-02-09T17:21:19.627Z,38.19
2018-02-09T17:23:45.484Z,37.95
2018-02-09T17:26:11.366Z,37.87
2018-02-09T17:28:37.179Z,38.43
2018-02-09T17:31:03.249Z,38.82
2018-02-09T17:33:29.228Z,38.16
2018-02-09T17:35:55.038Z,38.09
2018-02-09T17:38:20.885Z,37.99
2018-02-09T17:40:46.686Z,38.05
2018-02-09T17:43:12.626Z,38.06
2018-02-09T17:45:38.534Z,38.18
2018-02-09T17:48:04.442Z,38.04
2018-02-09T17:50:30.349Z,38.09
2018-02-09T17:52:56.158Z,38.29
2018-02-09T17:55:21.994Z,38.72
2018-02-09T17:57:48.155Z,38.87
2018-02-09T18:00:14.033Z,38.28
2018-02-09T18:02:39.902Z,38.03
2018-02-09T18:05:05.729Z,38.54
2018-02-09T18:07:42.588Z,38.25
2018-02-09T18:10:08.485Z,38.19
2018-02-09T18:12:34.327Z,38.20
2018-02-09T18:15:00.166Z,38.12
2018-02-09T18:17:27.980Z,38.71
2018-02-09T18:19:53.931Z,38.23
2018-02-09T18:22:19.744Z,38.42
2018-02-09T18:24:45.554Z,38.50
2018-02-09T18:27:11.374Z,38.55
2018-02-09T18:29:37.349Z,38.43
2018-02-09T18:32:03.259Z,38.85
2018-02-09T18:34:29.107Z,38.50
2018-02-09T18:36:54.925Z,39.06
2018-02-09T18:39:20.733Z,38.75
2018-02-09T18:41:46.537Z,38.78
2018-02-09T18:44:12.422Z,38.87
2018-02-09T18:46:38.233Z,38.98
2018-02-09T18:49:04.081Z,38.70
2018-02-09T18:51:29.934Z,37.90
2018-02-09T18:53:55.822Z,38.29
2018-02-09T18:56:21.781Z,38.50
2018-02-09T18:58:47.676Z,38.48
2018-02-09T19:01:13.509Z,38.60
2018-02-09T19:03:39.339Z,38.07
2018-02-09T19:06:05.185Z,38.10
2018-02-09T19:08:31.046Z,38.61
2018-02-09T19:10:57.993Z,38.65
2018-02-09T19:13:23.958Z,38.51
2018-02-09T19:15:49.835Z,38.28
2018-02-09T19:18:15.713Z,38.44
2018-02-09T19:20:41.537Z,38.37
2018-02-09T19:23:07.406Z,38.68
2018-02-09T19:25:33.322Z,38.48
2018-02-09T19:27:59.342Z,38.87
2018-02-09T19:30:25.170Z,38.20
2018-02-09T19:32:51.025Z,38.37
2018-02-09T19:35:16.909Z,38.52
2018-02-09T19:37:42.890Z,38.16
2018-02-09T19:40:08.698Z,38.87
2018-02-09T19:42:34.510Z,38.46
2018-02-09T19:45:00.491Z,38.28
2018-02-09T19:47:26.358Z,38.09
2018-02-09T19:49:52.171Z,38.45
2018-02-09T19:52:18.019Z,38.67
2018-02-09T19:54:43.977Z,38.38
2018-02-09T19:57:09.898Z,38.50
2018-02-09T19:59:35.822Z,38.93
2018-02-09T20:02:02.670Z,38.57
2018-02-09T20:04:28.484Z,38.06
2018-02-09T20:06:54.291Z,37.99
2018-02-09T20:09:20.120Z,38.26
2018-02-09T20:11:45.947Z,38.10
2018-02-09T20:14:11.755Z,38.72
2018-02-09T20:16:37.598Z,38.85
2018-02-09T20:19:03.426Z,38.54
2018-02-09T20:21:29.291Z,38.09
2018-02-09T20:23:55.124Z,38.14
2018-02-09T20:26:20.943Z,38.29
2018-02-09T20:28:46.787Z,38.11
2018-02-09T20:31:12.645Z,38.64
2018-02-09T20:33:38.518Z,38.51
2018-02-09T20:36:04.503Z,38.14
2018-02-09T20:38:30.328Z,38.87
2018-02-09T20:40:56.142Z,38.10
2018-02-09T20:43:21.959Z,38.34
2018-02-09T20:45:47.834Z,38.16
2018-02-09T20:48:13.650Z,38.04
2018-02-09T20:50:39.820Z,37.98
2018-02-09T20:53:05.783Z,38.21
2018-02-09T20:55:31.610Z,38.02
2018-02-09T20:57:57.470Z,37.91
2018-02-09T21:00:23.341Z,38.21
2018-02-09T21:02:49.200Z,38.53
2018-02-09T21:05:15.254Z,38.27
2018-02-09T21:07:41.130Z,37.84
2018-02-09T21:10:06.946Z,38.53
2018-02-09T21:12:32.851Z,38.15
2018-02-09T21:14:59.710Z,38.15
2018-02-09T21:17:25.558Z,38.98
2018-02-09T21:19:51.383Z,38.41
2018-02-09T21:22:17.200Z,38.49
2018-02-09T21:24:43.018Z,38.31
2018-02-09T21:27:08.829Z,38.48
2018-02-09T21:29:34.643Z,38.07
2018-02-09T21:32:00.518Z,38.47
2018-02-09T21:34:26.382Z,38.13
2018-02-09T21:36:52.292Z,38.24
2018-02-09T21:39:18.102Z,38.56
2018-02-09T21:41:43.914Z,38.38
2018-02-09T21:44:09.873Z,38.37
2018-02-09T21:46:36.329Z,38.33
2018-02-09T21:49:02.160Z,38.57
2018-02-09T21:51:28.018Z,38.31
2018-02-09T21:53:53.834Z,38.36
2018-02-09T21:56:19.677Z,38.27
2018-02-09T21:58:45.482Z,38.38
2018-02-09T22:01:12.316Z,38.75
2018-02-09T22:03:38.153Z,38.64
2018-02-09T22:06:04.670Z,38.82
2018-02-09T22:08:30.706Z,38.51
2018-02-09T22:10:56.514Z,38.33
2018-02-09T22:13:23.187Z,38.40
2018-02-09T22:15:49.365Z,38.46
2018-02-09T22:18:15.358Z,38.27
2018-02-09T22:20:41.246Z,38.31
2018-02-09T22:23:07.054Z,38.51
2018-02-09T22:25:32.868Z,38.53
2018-02-09T22:27:58.683Z,38.04
2018-02-09T22:30:26.667Z,38.15
2018-02-09T22:32:52.646Z,38.38
2018-02-09T22:35:18.489Z,38.07
2018-02-09T22:37:44.339Z,37.96
2018-02-09T22:40:10.242Z,38.15
2018-02-09T22:42:36.118Z,38.06
2018-02-09T22:45:02.533Z,38.11
2018-02-09T22:47:28.942Z,38.08
2018-02-09T22:49:54.753Z,38.13
2018-02-09T22:52:20.558Z,38.07
2018-02-09T22:54:46.404Z,38.03
2018-02-09T22:57:13.102Z,38.37
2018-02-09T22:59:39.339Z,38.24
2018-02-09T23:02:05.625Z,38.41
2018-02-09T23:04:31.464Z,38.15
2018-02-09T23:06:57.364Z,38.17
2018-02-09T23:09:23.547Z,38.30
2018-02-09T23:11:49.629Z,38.03
2018-02-09T23:14:15.478Z,38.38
2018-02-09T23:16:41.537Z,38.63
2018-02-09T23:19:07.359Z,38.48
2018-02-09T23:21:33.206Z,38.63
2018-02-09T23:23:59.018Z,38.68
2018-02-09T23:26:24.838Z,38.88
2018-02-09T23:28:50.679Z,38.41
2018-02-09T23:31:16.493Z,38.64
2018-02-09T23:33:42.305Z,38.86
2018-02-09T23:36:08.108Z,38.44
2018-02-09T23:38:33.915Z,38.47
2018-02-09T23:40:59.726Z,38.36
2018-02-09T23:43:25.551Z,38.55
2018-02-09T23:45:51.360Z,38.52
2018-02-09T23:48:17.175Z,38.94
2018-02-09T23:50:43.043Z,38.51
2018-02-09T23:53:08.885Z,38.65
2018-02-09T23:55:34.698Z,38.51
2018-02-09T23:58:00.550Z,38.80
